Tiempo atmosférico en la estación meteorológica de Puebla De Obando, Badajoz (392 m.)



Fecha
DESCASC
Temp. máxima en grados centígrados (hora)
DESCASC
Temp. mínima en grados centígrados (hora)
DESCASC
Temp. media en grados centígrados
DESCASC
Racha de viento máxima en m/sg (hora)
DESCASC
Velocidad máxima media en intervalos de 10 minutos(hora)
DESCASC
Precipitaciones diarias en mm
DESCASC
Precipitaciones de 00:00 a 06:00 en mm
DESCASC
Precipitaciones de 06:00 a 12:00 en mm
DESCASC
Precipitaciones de 12:00 a 18:00 en mm
DESCASC
Precipitaciones de 18:00 a 24:00 en mm
DESCASC
05-04-2020 18.9 (15:40) 9.9 (07:50) 14.4 11.11 (18:40) 6.67 (12:10) 8 0 0 0 8
04-04-2020 17.8 (16:20) 8.2 (07:40) 13 10 (14:50) 6.39 (11:50) 0 0 0 0 0
03-04-2020 19.2 (17:50) 6.2 (08:00) 12.7 6.94 (12:40) 4.72 (12:40) 0 0 0 0 0
02-04-2020 17 (17:50) 5.8 (00:00) 11.4 7.5 (04:30) 5.83 (04:30) 15 13.8 1.2 0 0
01-04-2020 13.2 (16:10) 1.8 (00:00) 7.5 12.5 (16:50) 6.94 (17:00) 7.2 0 0 1.6 5.6
31-03-2020 13.1 (17:30) 4.9 (00:00) 9 9.17 (03:00) 6.39 (21:10) 10.4 2.4 4.8 3.2 0
30-03-2020 12 (14:50) 6.3 (00:00) 9.2 10 (23:30) 6.67 (23:30) 4.8 0 0 3.6 1.2
29-03-2020 18.3 (15:30) 5.1 (00:00) 11.7 7.5 (15:20) 4.17 (14:30) 0 0 0 0 0
28-03-2020 16.8 (16:50) 3.5 (00:00) 10.1 10.83 (09:30) 7.5 (09:30) 0 0 0 0 0
27-03-2020 14.5 (15:10) 1.4 (00:00) 7.9 7.78 (18:00) 5.83 (18:00) 0 0 0 0 0
26-03-2020 19.2 (16:30) 7 (00:00) 13.1 10.28 (16:30) 6.67 (12:50) 0 0 0 0 0
25-03-2020 19 (15:50) 8.9 (00:00) 13.9 7.78 (18:20) 5.28 (18:20) 0 0 0 0 0
24-03-2020 16.9 (14:40) 8.9 (00:00) 12.9 15.83 (14:00) 10.56 (12:50) 0 0 0 0 0
23-03-2020 16.3 (16:10) 7.9 (00:00) 12.1 11.11 (19:20) 6.67 (19:20) 1.8 0 0 0.2 1.6
22-03-2020 15.2 (16:30) 6.5 (07:20) 10.8 6.39 (09:50) 4.72 (09:50) 0.2 0.2 0 0 0
21-03-2020 13.6 (15:00) 7.4 (00:00) 10.5 7.78 (06:40) 4.72 (06:50) 29.8 19 0.8 5.6 4.4
20-03-2020 12.7 (12:20) 9.4 (00:00) 11 6.94 (07:50) 4.72 (08:10) 43.4 0.8 1 20.8 20.8
19-03-2020 19.6 (16:10) 10 (00:00) 14.8 8.61 (00:40) 5.56 (00:40) 0 0 0 0 0
18-03-2020 20.9 (15:50) 11.6 (00:00) 16.3 13.06 (06:50) 9.44 (06:50) 0 0 0 0 0
17-03-2020 16.4 (17:10) 3.9 (00:00) 10.1 13.61 (09:40) 8.61 (10:00) 0 0 0 0 0
16-03-2020 10.1 (12:50) 2.3 (00:00) 6.2 15.28 (15:00) 10.56 (14:30) 3 0 0 1.4 1.6
15-03-2020 19.7 (15:30) 6.5 (00:00) 13.1 13.06 (16:50) 8.33 (16:00) 0 0 0 0 0
14-03-2020 22.6 (17:20) 7.5 (00:00) 15.1 5.28 (11:10) 3.61 (11:10) 0 0 0 0 0
13-03-2020 18 (17:00) 8.3 (04:50) 13.2 5 (17:40) 3.33 (17:50) 0 0 0 0 0
12-03-2020 23.9 (15:20) 10.6 (00:00) 17.3 7.78 (16:50) 5.28 (16:50) 0 0 0 0 0
11-03-2020 25.5 (14:20) 9.1 (00:00) 17.3 4.72 (10:30) 3.89 (10:30) 0 0 0 0 0

Gráficas

Temp. máximas Temp. mínimas Temp. medias Precipitaciones Rachas de viento máximas Velocidades máximas media en intervalos de 10 minutos

Datos horarios

Fecha y hora oficial Temperatura (ºC) Velocidad del viento (km/h) Dirección del viento Racha (km/h) Dirección de racha Precipitación (mm) Presión (hPa) Tendencia (hPa) Humedad (%)
2020-04-09 23:00:00 -- -- -- -- -- -- -- -- --
2020-04-09 22:00:00 -- -- -- -- -- -- -- -- --
2020-04-09 21:00:00 14.9 3 Sudoeste 5 Sudoeste 0 -- -- 99
2020-04-09 20:00:00 14.9 0 Calma 3 Oeste 0 -- -- 97
2020-04-09 19:00:00 14.6 2 Nordeste 8 Norte 0 -- -- 100
2020-04-09 18:00:00 14.9 4 Nordeste 7 Noroeste 0.8 -- -- 99
2020-04-09 17:00:00 14.9 5 Noroeste 12 Noroeste 2 -- -- 99
2020-04-09 16:00:00 14.8 8 Noroeste 12 Noroeste 1.4 -- -- 100
2020-04-09 15:00:00 14.6 8 Norte 12 Norte 2 -- -- 100
2020-04-09 14:00:00 14.2 9 Noroeste 22 Noroeste 4.4 -- -- 100
2020-04-09 13:00:00 15.7 6 Sudoeste 9 Sudoeste 0.6 -- -- 99
2020-04-09 12:00:00 15.7 0 Calma 4 Sudoeste 1.8 -- -- 99
2020-04-09 11:00:00 15.7 0 Calma 8 Norte 0.2 -- -- 99
2020-04-09 10:00:00 15.6 4 Norte 8 Norte 0 -- -- 96
2020-04-09 09:00:00 15.2 0 Calma 11 Norte 0 -- -- 99
2020-04-09 08:00:00 14.9 9 Oeste 15 Nordeste 0 -- -- 100
2020-04-09 07:00:00 14.6 2 Norte 7 Oeste 0 -- -- 100
2020-04-09 06:00:00 14.8 0 Calma 10 Oeste 0.2 -- -- 100
2020-04-09 05:00:00 15 6 Oeste 7 Oeste 0 -- -- 100
2020-04-09 04:00:00 15.3 3 Noroeste 10 Noroeste 0 -- -- 98
2020-04-09 03:00:00 15.8 4 Oeste 8 Noroeste 0 -- -- 94
2020-04-09 02:00:00 15.8 5 Noroeste 12 Oeste 0 -- -- 93
2020-04-09 01:00:00 16.1 9 Noroeste 12 Oeste 0 -- -- 90
2020-04-09 00:00:00 16 8 Noroeste 10 Oeste 0 -- -- 90
2020-04-08 23:00:00 16.2 3 Noroeste 6 Noroeste 0 -- -- 90
2020-04-08 22:00:00 16.3 0 Calma 10 Noroeste 0 -- -- 91
2020-04-08 21:00:00 17.7 9 Oeste 16 Oeste 0 -- -- 84
2020-04-08 20:00:00 19.5 10 Oeste 15 Sudoeste 0 -- -- 73
2020-04-08 19:00:00 21.2 5 Oeste 15 Sudoeste 0 -- -- 69
2020-04-08 18:00:00 21.2 8 Oeste 13 Oeste 0 -- -- 65
2020-04-08 17:00:00 21.5 6 Sur 20 Sudoeste 0 -- -- 66
2020-04-08 16:00:00 20.8 10 Sudoeste 21 Sudoeste 0 -- -- 67
2020-04-08 15:00:00 20.1 7 Sur 18 Sudoeste 0 -- -- 74
2020-04-08 14:00:00 20.2 8 Sur 18 Sudeste 0 -- -- 72
2020-04-08 13:00:00 19.6 9 Sudeste 16 Sudeste 0 -- -- 76
2020-04-08 12:00:00 18.8 8 Este 15 Sudeste 0 -- -- 81
2020-04-08 11:00:00 17.2 5 Sudeste 10 Sudeste 0 -- -- 89
2020-04-08 10:00:00 14.8 5 Sur 7 Sur 0 -- -- 100
2020-04-08 09:00:00 10.7 0 Calma 4 Sudeste 0 -- -- 100
2020-04-08 08:00:00 10.8 0 Calma 2 Norte 0 -- -- 100
2020-04-08 07:00:00 11.5 0 Calma 2 Sudeste 0 -- -- 100
2020-04-08 06:00:00 11.5 0 Calma 4 Sudoeste 0 -- -- 100
2020-04-08 05:00:00 11 3 Sudoeste 4 Sudeste 0 -- -- 100
2020-04-08 04:00:00 11.5 3 Este 5 Sudeste 0 -- -- 100
2020-04-08 03:00:00 10.9 3 Sur 4 Sudeste 0 -- -- 100
2020-04-08 02:00:00 11 0 Calma 3 Sudeste 0 -- -- 100
2020-04-08 01:00:00 11.2 2 Sur 5 Sur 0 -- -- 100
2020-04-08 00:00:00 12 2 Sur 4 Sur 0 -- -- 100
2020-04-07 23:00:00 12.8 3 Sudeste 9 Sudeste 0 -- -- 99
2020-04-07 22:00:00 13.9 6 Sudeste 10 Sudeste 0 -- -- 97
2020-04-07 21:00:00 15.6 7 Sur 12 Sur 0 -- -- 94
2020-04-07 20:00:00 17.9 8 Sur 13 Sudoeste 0 -- -- 79
2020-04-07 19:00:00 18.8 8 Sudoeste 15 Oeste 0 -- -- 79
2020-04-07 18:00:00 18.6 5 Sur 17 Oeste 0 -- -- 83
2020-04-07 17:00:00 17.9 11 Oeste 22 Sudoeste 0 -- -- 86
2020-04-07 16:00:00 16.3 10 Sudoeste 17 Sudoeste 0 -- -- 94
2020-04-07 15:00:00 14.6 6 Sur 15 Sur 0.2 -- -- 100
2020-04-07 14:00:00 14.6 9 Sur 21 Sur 0.8 -- -- 100
2020-04-07 13:00:00 14.4 10 Sur 19 Sur 0.8 -- -- 100
2020-04-07 12:00:00 15.1 14 Sur 23 Sur 0 -- -- 98
2020-04-07 11:00:00 14.4 9 Sur 21 Sudoeste 0 -- -- 100
2020-04-07 10:00:00 13.7 12 Sur 22 Sur 0.2 -- -- 100
2020-04-07 09:00:00 13.2 12 Sur 19 Sur 0 -- -- 100
2020-04-07 08:00:00 12.8 13 Sur 26 Sur 3.8 -- -- 100
2020-04-07 07:00:00 13.1 16 Sur 28 Sudeste 2.8 -- -- 100
2020-04-07 06:00:00 13.3 14 Sur 23 Sudeste 0 -- -- 100
2020-04-07 05:00:00 13.3 13 Sur 22 Sur 2 -- -- 100
2020-04-07 04:00:00 13.4 12 Sudeste 20 Sudeste 0 -- -- 100
2020-04-07 03:00:00 13.3 13 Sudeste 21 Sur 1 -- -- 100
2020-04-07 02:00:00 13.5 11 Sudeste 17 Sudeste 0.6 -- -- 100
2020-04-07 01:00:00 13 12 Sudeste 17 Sudeste 0.2 -- -- 100
2020-04-07 00:00:00 13 10 Sudeste 18 Este 2 -- -- 100
2020-04-06 23:00:00 13.3 8 Sudeste 17 Sudeste 1.4 -- -- 100
2020-04-06 22:00:00 13.5 6 Sur 11 Sudeste 2 -- -- 100
2020-04-06 21:00:00 13.6 6 Sudeste 9 Sudeste 5.4 -- -- 100
2020-04-06 20:00:00 14 2 Oeste 11 Este 2.6 -- -- 100
2020-04-06 19:00:00 14.2 4 Noroeste 11 Norte 4.6 -- -- 100
2020-04-06 18:00:00 14.9 10 Norte 19 Norte 1.4 -- -- 96
2020-04-06 17:00:00 18 6 Sudoeste 20 Oeste 0 -- -- 77
2020-04-06 16:00:00 17.7 9 Sudoeste 19 Sudoeste 0 -- -- 77
2020-04-06 15:00:00 17.4 11 Sur 19 Sudoeste 0 -- -- 80
2020-04-06 14:00:00 16.8 8 Sudoeste 15 Sudoeste 0 -- -- 83
2020-04-06 13:00:00 16.2 9 Sudoeste 18 Sudoeste 0 -- -- 86
2020-04-06 12:00:00 15.3 13 Sudoeste 19 Sudoeste 0 -- -- 88
2020-04-06 11:00:00 14.3 7 Sur 13 Sudoeste 0 -- -- 91
2020-04-06 10:00:00 13.4 5 Sur 11 Sudeste 0 -- -- 97
2020-04-06 09:00:00 11.6 2 Este 5 Sudeste 0 -- -- 100
2020-04-06 08:00:00 11.6 3 Sudeste 9 Oeste 0 -- -- 100
2020-04-06 07:00:00 11.7 8 Oeste 12 Sudoeste 0 -- -- 100
2020-04-06 06:00:00 11.8 9 Oeste 17 Oeste 0 -- -- 100
2020-04-06 05:00:00 12.1 11 Oeste 19 Oeste 0 -- -- 100
2020-04-06 04:00:00 12.5 12 Oeste 18 Oeste 0 -- -- 100
2020-04-06 03:00:00 12.8 14 Oeste 27 Oeste 0 -- -- 100
2020-04-06 02:00:00 13.8 14 Oeste 24 Sudoeste 0 -- -- 100
2020-04-06 01:00:00 13.9 15 Sudoeste 36 Sudoeste 1.6 -- -- 100
2020-04-06 00:00:00 14 15 Sudoeste 29 Sudoeste 4.8 -- -- 100
2020-04-05 23:00:00 14.3 13 Sur 34 Sur 1 -- -- 96
2020-04-05 22:00:00 14.4 20 Sur 32 Sudoeste 0.6 -- -- 96
2020-04-05 21:00:00 14.6 13 Sudoeste 32 Sudoeste 0.6 -- -- 95
2020-04-05 20:00:00 15.3 13 Sudoeste 38 Sur 0.6 -- -- 91
2020-04-05 19:00:00 14.7 11 Sudoeste 40 Sudoeste 0.4 -- -- 94
2020-04-05 18:00:00 17.3 17 Sudoeste 36 Sudoeste 0 -- -- 74
2020-04-05 17:00:00 17.9 22 Sur 36 Sudoeste 0 -- -- 72
2020-04-05 16:00:00 18.3 21 Sudoeste 35 Sudoeste 0 -- -- 73
2020-04-05 15:00:00 17.7 13 Sudoeste 29 Sur 0 -- -- 74
2020-04-05 14:00:00 18 18 Sur 35 Sur 0 -- -- 68
2020-04-05 13:00:00 17.5 22 Sur 37 Sur 0 -- -- 71
2020-04-05 12:00:00 15.6 22 Sur 31 Sur 0 -- -- 72
2020-04-05 11:00:00 13.3 22 Sudeste 33 Sudeste 0 -- -- 77
2020-04-05 10:00:00 12.4 21 Sudeste 30 Sudeste 0 -- -- 79
2020-04-05 09:00:00 10.4 17 Sudeste 24 Sudeste 0 -- -- 84
2020-04-05 08:00:00 10 11 Sur 21 Sudeste 0 -- -- 86
2020-04-05 07:00:00 10.2 11 Sur 17 Sudeste 0 -- -- 86
2020-04-05 06:00:00 10 12 Sur 27 Sudeste 0 -- -- 90
2020-04-05 05:00:00 10.4 14 Sudeste 20 Sudeste 0 -- -- 92
2020-04-05 04:00:00 11 12 Sur 23 Sur 0 -- -- 89
2020-04-05 03:00:00 10.8 10 Sur 16 Sur 0 -- -- 90
2020-04-05 02:00:00 11.6 12 Sur 21 Sur 0 -- -- 86
2020-04-05 01:00:00 10.9 9 Sudeste 16 Sudeste 0 -- -- 89
2020-04-05 00:00:00 11.7 12 Sudeste 15 Sudeste 0 -- -- 88
2020-04-04 23:00:00 12 8 Sudeste 9 Sudeste 0 -- -- 91
2020-04-04 22:00:00 12.9 2 Sudeste 4 Sudeste 0 -- -- 88
2020-04-04 21:00:00 13.9 3 Oeste 28 Sur 0 -- -- 79
2020-04-04 20:00:00 15.3 17 Sur 28 Sur 0 -- -- 65
2020-04-04 19:00:00 16 17 Sur 29 Sur 0 -- -- 61
2020-04-04 18:00:00 16.6 19 Sur 31 Sudoeste 0 -- -- 57
2020-04-04 17:00:00 17.3 22 Sur 33 Sur 0 -- -- 53
2020-04-04 16:00:00 16.8 22 Sudeste 31 Sur 0 -- -- 56
2020-04-04 15:00:00 16.3 23 Sur 36 Sur 0 -- -- 56
2020-04-04 14:00:00 15.6 23 Sudeste 35 Sudeste 0 -- -- 63
2020-04-04 13:00:00 14.7 21 Sudeste 32 Sudeste 0 -- -- 68
2020-04-04 12:00:00 14.2 21 Sudeste 34 Sudeste 0 -- -- 72
2020-04-04 11:00:00 13.7 19 Sudeste 29 Sudeste 0 -- -- 72
2020-04-04 10:00:00 12.5 22 Sudeste 32 Sudeste 0 -- -- 78
2020-04-04 09:00:00 10 14 Sudeste 21 Sudeste 0 -- -- 88
2020-04-04 08:00:00 8.3 7 Sudeste 11 Sudeste 0 -- -- 91
2020-04-04 07:00:00 8.4 7 Sudeste 11 Sudeste 0 -- -- 89
2020-04-04 06:00:00 9.3 8 Sudeste 12 Sudeste 0 -- -- 85
2020-04-04 05:00:00 9 7 Sudeste 11 Sudeste 0 -- -- 83
2020-04-04 04:00:00 9.2 6 Sudeste 10 Sur 0 -- -- 83
2020-04-04 03:00:00 9.3 4 Sudeste 9 Sudeste 0 -- -- 81
2020-04-04 02:00:00 9.9 8 Sudeste 10 Sur 0 -- -- 75
2020-04-04 01:00:00 10.3 6 Sur 11 Sudeste 0 -- -- 75
2020-04-04 00:00:00 10.8 5 Sur 8 Sur 0 -- -- 73
2020-04-03 23:00:00 11.3 4 Sur 7 Sudeste 0 -- -- 80
2020-04-03 22:00:00 12.7 4 Sudeste 12 Este 0 -- -- 80
2020-04-03 21:00:00 14.2 10 Este 14 Sudeste 0 -- -- 73
2020-04-03 20:00:00 17.6 9 Sudeste 22 Este 0 -- -- 58
2020-04-03 19:00:00 18.8 5 Sur 16 Sudeste 0 -- -- 53
2020-04-03 18:00:00 19 9 Sur 24 Sur 0 -- -- 51
2020-04-03 17:00:00 18.8 14 Sudeste 23 Sudeste 0 -- -- 52
2020-04-03 16:00:00 18.7 13 Sudeste 23 Sudeste 0 -- -- 59
2020-04-03 15:00:00 17.8 8 Sur 21 Sudoeste 0 -- -- 59
2020-04-03 14:00:00 17.1 10 Sudeste 23 Sur 0 -- -- 63
2020-04-03 13:00:00 16.3 14 Sudeste 25 Sudeste 0 -- -- 69
2020-04-03 12:00:00 14.8 16 Sudeste 24 Sudeste 0 -- -- 75
2020-04-03 11:00:00 14 13 Sudeste 20 Sudeste 0 -- -- 73
2020-04-03 10:00:00 11.6 7 Sudeste 10 Sudeste 0 -- -- 83
2020-04-03 09:00:00 7.5 0 Calma 4 Nordeste 0 -- -- 93
2020-04-03 08:00:00 6.2 4 Nordeste 8 Norte 0 -- -- 93
2020-04-03 07:00:00 7.4 7 Norte 15 Nordeste 0 -- -- 91
2020-04-03 06:00:00 7.4 9 Norte 14 Norte 0 -- -- 92
2020-04-03 05:00:00 7.7 3 Oeste 13 Norte 0 -- -- 90
2020-04-03 04:00:00 8 4 Oeste 17 Norte 0 -- -- 88
2020-04-03 03:00:00 9.5 5 Norte 17 Norte 0 -- -- 82
2020-04-03 02:00:00 9.8 10 Norte 19 Norte 0 -- -- 83
2020-04-03 01:00:00 8.5 5 Noroeste 9 Oeste 0 -- -- 92
2020-04-03 00:00:00 10.3 7 Norte 13 Noroeste 0 -- -- 83
2020-04-02 23:00:00 10.6 8 Noroeste 9 Noroeste 0 -- -- 81
2020-04-02 22:00:00 11.3 7 Noroeste 9 Noroeste 0 -- -- 81
2020-04-02 21:00:00 12 7 Oeste 12 Norte 0 -- -- 86
2020-04-02 20:00:00 13.4 5 Norte 24 Norte 0 -- -- 83
2020-04-02 19:00:00 16.6 8 Noroeste 23 Noroeste 0 -- -- 57
2020-04-02 18:00:00 16.9 10 Noroeste 23 Norte 0 -- -- 49
2020-04-02 17:00:00 16.3 9 Norte 23 Noroeste 0 -- -- 49
2020-04-02 16:00:00 15.6 6 Norte 17 Norte 0 -- -- 67
2020-04-02 15:00:00 14.2 5 Nordeste 12 Nordeste 0 -- -- 66
2020-04-02 14:00:00 13.6 6 Norte 18 Este 0 -- -- 73
2020-04-02 13:00:00 12.6 8 Nordeste 27 Nordeste 0 -- -- 81
2020-04-02 12:00:00 11.2 9 Nordeste 13 Nordeste 0 -- -- 87
2020-04-02 11:00:00 8.4 4 Nordeste 11 Norte 0 -- -- 97
2020-04-02 10:00:00 6.9 4 Nordeste 18 Norte 0 -- -- 100
2020-04-02 09:00:00 6.3 8 Norte 12 Norte 0 -- -- 100
2020-04-02 08:00:00 5.9 10 Norte 17 Norte 0 -- -- 100
2020-04-02 07:00:00 5.9 10 Norte 16 Nordeste 1.2 -- -- 100
2020-04-02 06:00:00 5.9 12 Nordeste 20 Nordeste 2.2 -- -- 100
2020-04-02 05:00:00 6.1 12 Nordeste 27 Nordeste 2.6 -- -- 100
2020-04-02 04:00:00 6.6 9 Nordeste 17 Norte 0.6 -- -- 100
2020-04-02 03:00:00 7 8 Norte 18 Sudeste 4 -- -- 100
2020-04-02 02:00:00 7.6 10 Este 18 Este 3 -- -- 100
2020-04-02 01:00:00 6.9 0 Calma 12 Nordeste 1.4 -- -- 100
2020-04-02 00:00:00 6.5 9 Nordeste 15 Noroeste 1.6 -- -- 100
2020-04-01 23:00:00 7 13 Oeste 36 Oeste 3.6 -- -- 98
2020-04-01 22:00:00 9 9 Sur 18 Sur 0 -- -- 93
2020-04-01 21:00:00 9.1 9 Sudeste 20 Sudeste 0.2 -- -- 92
2020-04-01 20:00:00 10.3 13 Sudeste 23 Sudeste 0.2 -- -- 85
2020-04-01 19:00:00 10.5 14 Sudeste 24 Sudeste 0 -- -- 81
2020-04-01 18:00:00 10.8 10 Sudeste 35 Sudoeste 1.4 -- -- 78
2020-04-01 17:00:00 8.7 25 Sudoeste 45 Sur 0 -- -- 86
2020-04-01 16:00:00 13 15 Sudoeste 28 Sur 0 -- -- 64
2020-04-01 15:00:00 11.6 17 Sur 32 Sur 0 -- -- 71
2020-04-01 14:00:00 11.5 17 Sur 29 Sur 0.2 -- -- 69
2020-04-01 13:00:00 10.4 15 Sudeste 22 Sur 0 -- -- 70
2020-04-01 12:00:00 8.3 9 Sur 18 Sur 0 -- -- 80
2020-04-01 11:00:00 8 11 Sur 16 Sudeste 0 -- -- 87
2020-04-01 10:00:00 6.7 8 Sudeste 12 Sudeste 0 -- -- 93
2020-04-01 09:00:00 3.4 6 Sudeste 9 Sudeste 0 -- -- 100
2020-04-01 08:00:00 2.3 0 Calma 6 Sur 0 -- -- 100
2020-04-01 07:00:00 2.5 3 Sudeste 10 Sudeste 0 -- -- 100
2020-04-01 06:00:00 2.6 5 Sudeste 12 Sudeste 0 -- -- 100
2020-04-01 05:00:00 2.9 7 Sudeste 10 Sudeste 0 -- -- 100
2020-04-01 04:00:00 3.7 6 Sudeste 8 Sudeste 0 -- -- 98
2020-04-01 03:00:00 5.1 7 Sur 14 Sudoeste 0 -- -- 94
2020-04-01 02:00:00 4.2 0 Calma 6 Norte 0 -- -- 100
2020-04-01 01:00:00 4 4 Sudeste 5 Sudeste 0 -- -- 98
2020-04-01 00:00:00 4.9 3 Noroeste 10 Noroeste 0 -- -- 95
2020-03-31 23:00:00 5.9 4 Noroeste 16 Oeste 0 -- -- 95
2020-03-31 22:00:00 6.8 11 Oeste 32 Oeste 0 -- -- 93
2020-03-31 21:00:00 8.3 20 Oeste 31 Oeste 0 -- -- 96
2020-03-31 20:00:00 10.5 12 Oeste 22 Sudoeste 0 -- -- 90
2020-03-31 19:00:00 11.8 10 Oeste 24 Oeste 0 -- -- 86
2020-03-31 18:00:00 12.2 13 Oeste 24 Oeste 0 -- -- 84
2020-03-31 17:00:00 12.5 19 Oeste 28 Sudoeste 0 -- -- 88
2020-03-31 16:00:00 12.1 9 Sudoeste 17 Sudoeste 1.4 -- -- 95
2020-03-31 15:00:00 11.4 5 Sudoeste 12 Sur 0.4 -- -- 95
2020-03-31 14:00:00 10.5 9 Sur 17 Sur 1.4 -- -- 100
2020-03-31 13:00:00 9.3 7 Sudeste 19 Sudeste 0 -- -- 100
2020-03-31 12:00:00 8.3 13 Sur 26 Sudeste 0.2 -- -- 100
2020-03-31 11:00:00 8 13 Sudeste 24 Sudeste 0.2 -- -- 100
2020-03-31 10:00:00 7.3 10 Sudeste 21 Sudeste 0.2 -- -- 100
2020-03-31 09:00:00 6.3 10 Sudeste 24 Este 0.6 -- -- 100
2020-03-31 08:00:00 5.8 9 Este 23 Este 1.8 -- -- 100
2020-03-31 07:00:00 5 6 Nordeste 18 Nordeste 1.8 -- -- 100
2020-03-31 06:00:00 5.3 13 Nordeste 26 Este 1 -- -- 99
2020-03-31 05:00:00 5.1 16 Este 29 Este 0.8 -- -- 98
2020-03-31 04:00:00 5.5 18 Este 29 Este 0.6 -- -- 94
2020-03-31 03:00:00 5.8 21 Este 33 Este 0 -- -- 94
2020-03-31 02:00:00 5.8 17 Este 28 Este 0 -- -- 97
2020-03-31 01:00:00 6.1 16 Nordeste 29 Este 0 -- -- 97
2020-03-31 00:00:00 6.4 17 Este 36 Este 0 -- -- 98
2020-03-30 23:00:00 7.1 10 Este 27 Nordeste 0.8 -- -- 100
2020-03-30 22:00:00 7.7 19 Nordeste 29 Nordeste 0.4 -- -- 98
2020-03-30 21:00:00 8.7 18 Nordeste 27 Nordeste 0 -- -- 96
2020-03-30 20:00:00 10.1 16 Este 24 Este 0 -- -- 93
2020-03-30 19:00:00 9.3 11 Nordeste 26 Nordeste 0 -- -- 96
2020-03-30 18:00:00 9.3 16 Nordeste 22 Nordeste 0.4 -- -- 96
2020-03-30 17:00:00 9.6 9 Nordeste 17 Nordeste 2 -- -- 97
2020-03-30 16:00:00 10.5 14 Nordeste 22 Nordeste 0.4 -- -- 91
2020-03-30 15:00:00 11.9 15 Nordeste 23 Nordeste 0 -- -- 86
2020-03-30 14:00:00 10.6 14 Norte 21 Norte 0.2 -- -- 91
2020-03-30 13:00:00 10.2 3 Nordeste 7 Nordeste 0.6 -- -- 96
2020-03-30 12:00:00 10 4 Norte 7 Norte 0 -- -- 90
2020-03-30 11:00:00 8.9 5 Nordeste 15 Nordeste 0 -- -- 96
2020-03-30 10:00:00 8.9 0 Calma 8 Nordeste 0 -- -- 97
2020-03-30 09:00:00 7.2 2 Norte 5 Este 0 -- -- 100
2020-03-30 08:00:00 6.7 5 Nordeste 9 Nordeste 0 -- -- 97
2020-03-30 07:00:00 7.2 3 Oeste 9 Noroeste 0 -- -- 94
2020-03-30 06:00:00 7.9 4 Oeste 5 Oeste 0 -- -- 90
2020-03-30 05:00:00 6.7 0 Calma 2 Noroeste 0 -- -- 100
2020-03-30 04:00:00 6.6 0 Calma 3 Sudoeste 0 -- -- 96
2020-03-30 03:00:00 8.1 2 Oeste 12 Nordeste 0 -- -- 91
2020-03-30 02:00:00 9.6 10 Oeste 14 Oeste 0 -- -- 86
2020-03-30 01:00:00 10.2 7 Oeste 10 Oeste 0 -- -- 85
2020-03-30 00:00:00 11 6 Oeste 9 Noroeste 0 -- -- 80
2020-03-29 23:00:00 11.7 5 Noroeste 9 Oeste 0 -- -- 83
2020-03-29 22:00:00 12.7 6 Noroeste 8 Oeste 0 -- -- 76
2020-03-29 21:00:00 13.9 5 Oeste 9 Noroeste 0 -- -- 73
2020-03-29 20:00:00 16 7 Noroeste 12 Oeste 0 -- -- 63
2020-03-29 19:00:00 17.2 6 Noroeste 15 Noroeste 0 -- -- 54
2020-03-29 18:00:00 17.8 8 Oeste 21 Sudoeste 0 -- -- 49
2020-03-29 17:00:00 17.9 12 Oeste 26 Sudoeste 0 -- -- 54
2020-03-29 16:00:00 17.5 10 Oeste 27 Sudoeste 0 -- -- 60
2020-03-29 15:00:00 18 13 Sudoeste 22 Sudoeste 0 -- -- 53
2020-03-29 14:00:00 17.3 10 Sudoeste 21 Sudoeste 0 -- -- 64
2020-03-29 13:00:00 16.6 7 Noroeste 13 Oeste 0 -- -- 69
2020-03-29 12:00:00 15.9 3 Este 9 Oeste 0 -- -- 69
2020-03-29 11:00:00 13 7 Noroeste 13 Oeste 0 -- -- 74
2020-03-29 10:00:00 11 6 Oeste 14 Oeste 0 -- -- 83
2020-03-29 09:00:00 6.7 2 Sudeste 10 Sur 0 -- -- 88
2020-03-29 08:00:00 5.5 5 Sudeste 7 Sudeste 0 -- -- 88
2020-03-29 07:00:00 5.2 2 Sur 9 Nordeste 0 -- -- 91
2020-03-29 06:00:00 5.6 0 Calma 7 Sudeste 0 -- -- 92
2020-03-29 05:00:00 6.3 4 Sudeste 12 Sudoeste 0 -- -- 87
2020-03-29 03:00:00 7.1 0 Calma 3 Nordeste 0 -- -- 85
2020-03-29 01:00:00 9.6 3 Norte 7 Norte 0 -- -- 66
2020-03-29 00:00:00 9.7 4 Nordeste 7 Norte 0 -- -- 66
2020-03-28 23:00:00 8.8 2 Nordeste 3 Nordeste 0 -- -- 77
2020-03-28 22:00:00 10 0 Calma 5 Nordeste 0 -- -- 74
2020-03-28 21:00:00 10.4 0 Calma 3 Este 0 -- -- 74
2020-03-28 20:00:00 12.1 5 Este 9 Este 0 -- -- 66
2020-03-28 19:00:00 15.2 8 Sudeste 18 Sudeste 0 -- -- 51
2020-03-28 18:00:00 16 8 Este 20 Sudeste 0 -- -- 52
2020-03-28 17:00:00 16.8 7 Sur 23 Sudeste 0 -- -- 52
2020-03-28 16:00:00 16.6 8 Sur 26 Sudeste 0 -- -- 55
2020-03-28 15:00:00 14.8 11 Este 24 Este 0 -- -- 60
2020-03-28 14:00:00 14.5 12 Este 26 Este 0 -- -- 63
2020-03-28 13:00:00 13.4 16 Sudeste 28 Sudeste 0 -- -- 65
2020-03-28 12:00:00 12.2 17 Sudeste 34 Sudeste 0 -- -- 71
2020-03-28 11:00:00 10.4 18 Sudeste 32 Este 0 -- -- 72
2020-03-28 10:00:00 8.7 25 Sudeste 39 Sudeste 0 -- -- 78
2020-03-28 09:00:00 7.8 22 Este 35 Sudeste 0 -- -- 79
2020-03-28 08:00:00 4.6 6 Sudeste 9 Este 0 -- -- 91
2020-03-28 07:00:00 3.9 0 Calma 20 Este 0 -- -- 89
2020-03-28 06:00:00 6 15 Este 27 Este 0 -- -- 80
2020-03-28 05:00:00 6.1 14 Este 23 Este 0 -- -- 80
2020-03-28 04:00:00 5.5 11 Este 22 Este 0 -- -- 83
2020-03-28 03:00:00 3.8 6 Sudeste 14 Este 0 -- -- 89
2020-03-28 02:00:00 5.9 11 Este 21 Este 0 -- -- 82
2020-03-28 01:00:00 5.6 8 Este 23 Sudeste 0 -- -- 83
2020-03-28 00:00:00 6.1 15 Sudeste 22 Sudeste 0 -- -- 83
2020-03-27 23:00:00 5.9 7 Este 12 Sudeste 0 -- -- 84
2020-03-27 22:00:00 6.9 11 Sudeste 16 Sudeste 0 -- -- 83
2020-03-27 21:00:00 8 4 Este 14 Nordeste 0 -- -- 75
2020-03-27 20:00:00 9.6 3 Este 10 Este 0 -- -- 73
2020-03-27 19:00:00 11.3 9 Este 27 Este 0 -- -- 70
2020-03-27 18:00:00 12.1 21 Este 28 Este 0 -- -- 65
2020-03-27 17:00:00 13 15 Este 25 Este 0 -- -- 63
2020-03-27 16:00:00 14.5 9 Sudeste 24 Este 0 -- -- 63
2020-03-27 15:00:00 14.3 7 Sudeste 24 Sudeste 0 -- -- 58
2020-03-27 14:00:00 12.7 12 Sudeste 25 Sudeste 0 -- -- 75
2020-03-27 13:00:00 11.2 11 Sudeste 25 Sudeste 0 -- -- 75
2020-03-27 12:00:00 10.5 18 Sudeste 26 Sudeste 0 -- -- 82
2020-03-27 11:00:00 10.8 10 Este 18 Este 0 -- -- 74
2020-03-27 10:00:00 7.6 4 Sur 8 Sudeste 0 -- -- 96
2020-03-27 09:00:00 4.8 2 Sudeste 5 Sur 0 -- -- 100
2020-03-27 08:00:00 2.3 0 Calma 3 Noroeste 0 -- -- 100
2020-03-27 07:00:00 1.5 0 Calma 3 Sudoeste 0 -- -- 100
2020-03-27 06:00:00 2.3 0 Calma 3 Este 0 -- -- 100
2020-03-27 05:00:00 2.9 0 Calma 3 Sur 0 -- -- 100
2020-03-27 04:00:00 3.4 0 Calma 4 Sur 0 -- -- 100
2020-03-27 03:00:00 4.2 0 Calma 3 Oeste 0 -- -- 100
2020-03-27 02:00:00 5.1 0 Calma 6 Noroeste 0 -- -- 99
2020-03-27 01:00:00 6.3 0 Calma 14 Sudoeste 0 -- -- 97
2020-03-27 00:00:00 8.1 8 Oeste 10 Oeste 0 -- -- 88
2020-03-26 23:00:00 9.3 5 Noroeste 12 Noroeste 0 -- -- 85
2020-03-26 22:00:00 9.9 8 Noroeste 15 Oeste 0 -- -- 83
2020-03-26 21:00:00 11.2 8 Noroeste 17 Noroeste 0 -- -- 82
2020-03-26 20:00:00 13.6 12 Noroeste 29 Noroeste 0 -- -- 72
2020-03-26 19:00:00 16.7 14 Noroeste 28 Noroeste 0 -- -- 58
2020-03-26 18:00:00 18.3 19 Noroeste 33 Oeste 0 -- -- 49
2020-03-26 17:00:00 19 19 Noroeste 37 Noroeste 0 -- -- 47
2020-03-26 16:00:00 19.1 19 Noroeste 31 Oeste 0 -- -- 46
2020-03-26 15:00:00 18 18 Noroeste 30 Oeste 0 -- -- 55
2020-03-26 14:00:00 18.2 15 Norte 36 Noroeste 0 -- -- 48
2020-03-26 13:00:00 17.3 23 Noroeste 35 Noroeste 0 -- -- 47
2020-03-26 12:00:00 16.7 16 Noroeste 26 Noroeste 0 -- -- 51
2020-03-26 11:00:00 15 12 Noroeste 19 Noroeste 0 -- -- 67
2020-03-26 10:00:00 13.1 10 Oeste 15 Noroeste 0 -- -- 72
2020-03-26 09:00:00 10.8 8 Noroeste 12 Noroeste 0 -- -- 79
2020-03-26 08:00:00 8.2 0 Calma 11 Oeste 0 -- -- 87
2020-03-26 07:00:00 7 2 Oeste 7 Oeste 0 -- -- 93
2020-03-26 06:00:00 7.8 9 Oeste 14 Oeste 0 -- -- 93
2020-03-26 05:00:00 8.9 6 Norte 12 Noroeste 0 -- -- 85
2020-03-26 04:00:00 10.1 2 Oeste 15 Noroeste 0 -- -- 88
2020-03-26 03:00:00 10.5 5 Noroeste 14 Noroeste 0 -- -- 87
2020-03-26 02:00:00 10.9 8 Noroeste 13 Noroeste 0 -- -- 89
2020-03-26 01:00:00 11.5 8 Oeste 19 Noroeste 0 -- -- 89
2020-03-26 00:00:00 12.4 16 Noroeste 23 Noroeste 0 -- -- 83
2020-03-25 23:00:00 11.8 14 Noroeste 19 Noroeste 0 -- -- 84
2020-03-25 22:00:00 13 12 Noroeste 26 Noroeste 0 -- -- 81
2020-03-25 21:00:00 12.9 9 Noroeste 13 Noroeste 0 -- -- 80
2020-03-25 20:00:00 14.7 9 Oeste 19 Oeste 0 -- -- 72
2020-03-25 19:00:00 17.1 14 Oeste 28 Oeste 0 -- -- 63
2020-03-25 18:00:00 18.3 15 Oeste 24 Oeste 0 -- -- 59
2020-03-25 17:00:00 18.9 14 Noroeste 24 Oeste 0 -- -- 55
2020-03-25 16:00:00 18.7 14 Oeste 21 Oeste 0 -- -- 56
2020-03-25 15:00:00 17.6 7 Oeste 16 Noroeste 0 -- -- 59
2020-03-25 14:00:00 17.6 5 Noroeste 14 Oeste 0 -- -- 61
2020-03-25 13:00:00 16.7 5 Este 11 Oeste 0 -- -- 62
2020-03-25 12:00:00 15.6 3 Norte 8 Nordeste 0 -- -- 59
2020-03-25 11:00:00 13.7 5 Noroeste 12 Sudeste 0 -- -- 64
2020-03-25 10:00:00 11.9 9 Sudeste 15 Este 0 -- -- 70
2020-03-25 09:00:00 10.2 4 Sudeste 10 Sudeste 0 -- -- 77
2020-03-25 08:00:00 9 0 Calma 18 Este 0 -- -- 84
2020-03-25 07:00:00 9.3 6 Este 13 Este 0 -- -- 80
2020-03-25 06:00:00 9.8 9 Sudeste 18 Sudeste 0 -- -- 79
2020-03-25 05:00:00 10 8 Este 17 Este 0 -- -- 78
2020-03-25 04:00:00 9.9 8 Sudeste 19 Sudeste 0 -- -- 80
2020-03-25 03:00:00 9 10 Sudeste 17 Este 0 -- -- 84
2020-03-25 02:00:00 9.7 12 Sudeste 23 Este 0 -- -- 80
2020-03-25 01:00:00 10.7 13 Sudeste 24 Sudeste 0 -- -- 78
2020-03-25 00:00:00 11.3 18 Sudeste 31 Este 0 -- -- 74
2020-03-24 23:00:00 12 23 Este 37 Este 0 -- -- 71
2020-03-24 22:00:00 12.7 21 Sudeste 37 Este 0 -- -- 68
2020-03-24 21:00:00 13.8 22 Este 36 Sudeste 0 -- -- 65
2020-03-24 20:00:00 14.4 18 Este 32 Este 0 -- -- 65
2020-03-24 19:00:00 14.7 15 Nordeste 28 Este 0 -- -- 67
2020-03-24 18:00:00 15.1 15 Este 45 Este 0 -- -- 65
2020-03-24 17:00:00 15.2 26 Este 37 Este 0 -- -- 64
2020-03-24 16:00:00 15.8 23 Este 48 Este 0 -- -- 67
2020-03-24 15:00:00 16.2 29 Este 50 Este 0 -- -- 63
2020-03-24 14:00:00 15.9 36 Este 57 Este 0 -- -- 64
2020-03-24 13:00:00 16.4 34 Este 55 Sudeste 0 -- -- 63
2020-03-24 12:00:00 15.6 28 Este 45 Este 0 -- -- 70
2020-03-24 11:00:00 14.6 26 Este 39 Este 0 -- -- 72
2020-03-24 10:00:00 13.7 26 Nordeste 38 Este 0 -- -- 75
2020-03-24 09:00:00 12.5 22 Este 38 Este 0 -- -- 76
2020-03-24 08:00:00 10.6 19 Nordeste 28 Este 0 -- -- 84
2020-03-24 07:00:00 10.1 19 Nordeste 30 Nordeste 0 -- -- 87
2020-03-24 06:00:00 9.4 13 Nordeste 25 Nordeste 0 -- -- 91
2020-03-24 05:00:00 9.7 14 Nordeste 29 Este 0 -- -- 90
2020-03-24 04:00:00 11.1 20 Este 28 Este 0 -- -- 87
2020-03-24 03:00:00 9.8 9 Nordeste 12 Nordeste 0 -- -- 87
2020-03-24 02:00:00 9 5 Este 17 Este 0 -- -- 90
2020-03-24 01:00:00 9.8 12 Sudeste 24 Este 0 -- -- 84
2020-03-24 00:00:00 9.8 10 Sudeste 18 Este 0 -- -- 86
2020-03-23 23:00:00 10.8 13 Este 23 Nordeste 0 -- -- 81
2020-03-23 22:00:00 11.9 18 Nordeste 28 Nordeste 0 -- -- 75
2020-03-23 21:00:00 11.6 16 Nordeste 23 Nordeste 0 -- -- 77
2020-03-23 20:00:00 10.3 11 Este 40 Sudeste 1.6 -- -- 86
2020-03-23 19:00:00 14.7 10 Nordeste 22 Sudeste 0 -- -- 64
2020-03-23 18:00:00 15.4 18 Este 31 Este 0 -- -- 61
2020-03-23 17:00:00 14.4 18 Este 37 Este 0.2 -- -- 69
2020-03-23 16:00:00 15.8 13 Este 23 Sudeste 0 -- -- 64
2020-03-23 15:00:00 14.2 9 Sudeste 29 Sudeste 0 -- -- 73
2020-03-23 14:00:00 13.3 10 Nordeste 20 Este 0 -- -- 73
2020-03-23 13:00:00 14.4 11 Este 28 Este 0 -- -- 68
2020-03-23 12:00:00 14.3 17 Este 30 Este 0 -- -- 65
2020-03-23 11:00:00 12.7 13 Este 26 Sudeste 0 -- -- 78
2020-03-23 10:00:00 12.4 14 Este 21 Este 0 -- -- 82
2020-03-23 09:00:00 10 11 Nordeste 17 Nordeste 0 -- -- 93
2020-03-23 08:00:00 8.3 9 Norte 15 Norte 0 -- -- 98
2020-03-23 07:00:00 8.2 7 Norte 12 Nordeste 0 -- -- 99
2020-03-23 06:00:00 8.7 4 Noroeste 13 Nordeste 0 -- -- 99
2020-03-23 05:00:00 8.8 8 Norte 11 Nordeste 0 -- -- 96
2020-03-23 04:00:00 8.9 6 Norte 9 Nordeste 0 -- -- 95
2020-03-23 03:00:00 8.7 6 Norte 8 Norte 0 -- -- 100
2020-03-23 02:00:00 8.7 0 Calma 5 Norte 0 -- -- 98
2020-03-23 01:00:00 9.5 3 Oeste 8 Norte 0 -- -- 96
2020-03-23 00:00:00 10.3 2 Norte 5 Sur 0 -- -- 95
2020-03-22 23:00:00 10.6 0 Calma 4 Sur 0 -- -- 95
2020-03-22 22:00:00 10.6 0 Calma 10 Sudeste 0 -- -- 89
2020-03-22 21:00:00 11 10 Sudeste 21 Sudeste 0 -- -- 87
2020-03-22 20:00:00 13.1 2 Sur 8 Noroeste 0 -- -- 81
2020-03-22 19:00:00 14.9 3 Oeste 13 Noroeste 0 -- -- 64
2020-03-22 18:00:00 15 5 Oeste 10 Oeste 0 -- -- 65
2020-03-22 17:00:00 13.3 9 Nordeste 19 Nordeste 0 -- -- 70
2020-03-22 16:00:00 13.8 5 Sur 23 Sudeste 0 -- -- 67
2020-03-22 15:00:00 14 6 Este 12 Sudeste 0 -- -- 64
2020-03-22 14:00:00 14.2 3 Noroeste 12 Este 0 -- -- 67
2020-03-22 13:00:00 12.6 9 Nordeste 19 Nordeste 0 -- -- 71
2020-03-22 12:00:00 12 11 Nordeste 20 Sudeste 0 -- -- 71
2020-03-22 11:00:00 11.4 12 Este 22 Este 0 -- -- 77
2020-03-22 10:00:00 11.3 14 Este 23 Sudeste 0 -- -- 81
2020-03-22 09:00:00 9.8 9 Este 20 Este 0 -- -- 88
2020-03-22 08:00:00 7.4 8 Nordeste 12 Este 0 -- -- 98
2020-03-22 07:00:00 6.8 5 Este 10 Sudeste 0 -- -- 100
2020-03-22 06:00:00 7.4 2 Sudeste 15 Nordeste 0 -- -- 98
2020-03-22 05:00:00 7.6 9 Este 14 Este 0 -- -- 97
2020-03-22 04:00:00 8.2 8 Este 12 Sudeste 0 -- -- 99
2020-03-22 03:00:00 8.1 5 Este 14 Este 0 -- -- 100
2020-03-22 02:00:00 8.2 11 Este 18 Este 0.2 -- -- 99
2020-03-22 01:00:00 8 8 Nordeste 14 Nordeste 0 -- -- 100
2020-03-22 00:00:00 8.1 10 Nordeste 13 Nordeste 0 -- -- 100
2020-03-21 23:00:00 8 6 Nordeste 12 Nordeste 0 -- -- 100
2020-03-21 22:00:00 8.2 9 Nordeste 14 Nordeste 0.6 -- -- 100
2020-03-21 21:00:00 8.4 5 Nordeste 7 Nordeste 0 -- -- 99
2020-03-21 20:00:00 8.2 6 Este 14 Este 2.2 -- -- 99
2020-03-21 19:00:00 8.3 3 Nordeste 17 Este 1.6 -- -- 99
2020-03-21 18:00:00 8.7 11 Nordeste 21 Sur 2.6 -- -- 97
2020-03-21 17:00:00 9.4 9 Este 25 Sudoeste 3 -- -- 91
2020-03-21 16:00:00 10.8 14 Oeste 22 Sur 0 -- -- 86
2020-03-21 15:00:00 13.6 10 Sudeste 20 Sur 0 -- -- 66
2020-03-21 14:00:00 13.3 12 Sudeste 22 Sudeste 0 -- -- 66
2020-03-21 13:00:00 12.5 11 Sudeste 22 Sudeste 0 -- -- 75
2020-03-21 12:00:00 9.7 11 Sudoeste 15 Sur 0.2 -- -- 92
2020-03-21 11:00:00 9.3 7 Sur 19 Sudoeste 0 -- -- 88
2020-03-21 10:00:00 8.9 9 Sur 18 Sudoeste 0 -- -- 95
2020-03-21 09:00:00 7.8 10 Sudoeste 24 Sudoeste 0 -- -- 100
2020-03-21 08:00:00 7.6 13 Sudoeste 23 Sudoeste 0 -- -- 100
2020-03-21 07:00:00 7.7 13 Oeste 28 Sudoeste 0.6 -- -- 99
2020-03-21 06:00:00 8.1 11 Sudoeste 18 Sudoeste 0.8 -- -- 100
2020-03-21 05:00:00 8.4 4 Oeste 21 Oeste 0.8 -- -- 100
2020-03-21 04:00:00 8.9 9 Sur 14 Sudoeste 4 -- -- 100
2020-03-21 03:00:00 9.1 3 Sur 7 Sudoeste 2.2 -- -- 100
2020-03-21 02:00:00 9.2 0 Calma 5 Este 4.2 -- -- 100
2020-03-21 01:00:00 9.2 0 Calma 10 Norte 7 -- -- 100
2020-03-21 00:00:00 9.4 6 Norte 13 Norte 7.2 -- -- 100
2020-03-20 23:00:00 9.7 6 Oeste 20 Noroeste 4.8 -- -- 100
2020-03-20 22:00:00 10.1 10 Noroeste 18 Noroeste 4.8 -- -- 100
2020-03-20 21:00:00 10.5 8 Noroeste 13 Norte 0.2 -- -- 100
2020-03-20 20:00:00 10.4 6 Nordeste 10 Nordeste 0.6 -- -- 100
2020-03-20 19:00:00 10.7 2 Norte 9 Oeste 3.2 -- -- 100
2020-03-20 18:00:00 11.1 7 Noroeste 17 Oeste 9.2 -- -- 99
2020-03-20 17:00:00 12.1 9 Sudoeste 13 Sudoeste 2.8 -- -- 100
2020-03-20 16:00:00 12.2 6 Sudeste 17 Sudeste 0.2 -- -- 100
2020-03-20 15:00:00 12.1 10 Sudeste 14 Sudeste 5.4 -- -- 100
2020-03-20 14:00:00 12.1 3 Noroeste 12 Sudeste 2.8 -- -- 99
2020-03-20 13:00:00 12.3 5 Sudeste 15 Sur 0.4 -- -- 99
2020-03-20 12:00:00 12.5 9 Sudeste 16 Sudeste 0 -- -- 97
2020-03-20 11:00:00 12.2 10 Sudeste 17 Sudeste 0 -- -- 96
2020-03-20 10:00:00 11.8 12 Sudeste 21 Sudeste 0.2 -- -- 97
2020-03-20 09:00:00 11.3 14 Sudeste 24 Sudeste 0 -- -- 98
2020-03-20 08:00:00 11.2 15 Sudeste 25 Sudeste 0.8 -- -- 97
2020-03-20 07:00:00 11.1 13 Sudeste 22 Sudeste 0 -- -- 94
2020-03-20 06:00:00 11.8 14 Sudeste 21 Sudeste 0 -- -- 88
2020-03-20 05:00:00 12.2 12 Sudeste 18 Sudeste 0 -- -- 84
2020-03-20 04:00:00 12.3 11 Sudeste 16 Sudeste 0.2 -- -- 83
2020-03-20 03:00:00 12.4 9 Sudeste 15 Sudeste 0 -- -- 85
2020-03-20 02:00:00 12.1 10 Sudeste 19 Sudeste 0.6 -- -- 89
2020-03-20 01:00:00 11.7 10 Sur 15 Sur 0 -- -- 85
2020-03-20 00:00:00 11.2 3 Noroeste 6 Norte 0 -- -- 83
2020-03-19 23:00:00 11.9 3 Norte 5 Este 0 -- -- 78
2020-03-19 22:00:00 13.2 4 Nordeste 16 Nordeste 0 -- -- 73
2020-03-19 21:00:00 13.6 5 Nordeste 17 Nordeste 0 -- -- 73
2020-03-19 20:00:00 14.6 13 Nordeste 18 Nordeste 0 -- -- 70
2020-03-19 19:00:00 16.6 8 Este 19 Sudeste 0 -- -- 63
2020-03-19 18:00:00 18.6 13 Sudeste 21 Sudeste 0 -- -- 54
2020-03-19 17:00:00 19.5 16 Sudeste 24 Este 0 -- -- 50
2020-03-19 16:00:00 19.5 15 Este 22 Este 0 -- -- 52
2020-03-19 15:00:00 19 9 Este 27 Este 0 -- -- 53
2020-03-19 14:00:00 18.7 10 Este 26 Este 0 -- -- 57
2020-03-19 13:00:00 17.7 15 Sudeste 22 Sudeste 0 -- -- 56
2020-03-19 12:00:00 15.9 13 Sudeste 21 Sudeste 0 -- -- 59
2020-03-19 11:00:00 15.6 13 Sudeste 22 Sudeste 0 -- -- 57
2020-03-19 10:00:00 13.4 16 Sudeste 26 Sudeste 0 -- -- 59
2020-03-19 09:00:00 12 10 Sudeste 16 Este 0 -- -- 61
2020-03-19 08:00:00 10.1 8 Sudeste 19 Sudeste 0 -- -- 62
2020-03-19 07:00:00 10.6 12 Sudeste 25 Sudeste 0 -- -- 60
2020-03-19 06:00:00 10.9 13 Sudeste 20 Sudeste 0 -- -- 62
2020-03-19 05:00:00 11.6 8 Sudeste 24 Sudeste 0 -- -- 62
2020-03-19 04:00:00 12.2 15 Sudeste 24 Sudeste 0 -- -- 61
2020-03-19 03:00:00 12.8 14 Sudeste 28 Este 0 -- -- 61
2020-03-19 02:00:00 13.6 17 Este 27 Este 0 -- -- 60
2020-03-19 01:00:00 14 15 Este 31 Este 0 -- -- 59
2020-03-19 00:00:00 14.1 18 Este 26 Este 0 -- -- 61
2020-03-18 23:00:00 14.4 15 Este 26 Este 0 -- -- 66
2020-03-18 22:00:00 14.4 15 Nordeste 27 Este 0 -- -- 71
2020-03-18 21:00:00 14.7 16 Nordeste 26 Este 0 -- -- 70
2020-03-18 20:00:00 15.3 13 Nordeste 27 Nordeste 0 -- -- 70
2020-03-18 19:00:00 15.8 15 Nordeste 30 Nordeste 0 -- -- 67
2020-03-18 18:00:00 18.5 19 Este 28 Este 0 -- -- 60
2020-03-18 17:00:00 19.9 21 Este 30 Nordeste 0 -- -- 54
2020-03-18 16:00:00 20.9 17 Sudeste 30 Sudeste 0 -- -- 49
2020-03-18 15:00:00 19.9 17 Este 29 Este 0 -- -- 57
2020-03-18 14:00:00 18.6 22 Nordeste 32 Este 0 -- -- 58
2020-03-18 13:00:00 18 19 Este 33 Este 0 -- -- 59
2020-03-18 12:00:00 17.1 21 Este 37 Este 0 -- -- 64
2020-03-18 11:00:00 15.9 21 Este 38 Este 0 -- -- 65
2020-03-18 10:00:00 14 25 Este 40 Este 0 -- -- 68
2020-03-18 09:00:00 12.6 22 Este 32 Este 0 -- -- 72
2020-03-18 08:00:00 11.6 15 Este 45 Este 0 -- -- 76
2020-03-18 07:00:00 12.4 33 Este 47 Este 0 -- -- 70
2020-03-18 06:00:00 12.4 26 Este 47 Este 0 -- -- 71
2020-03-18 05:00:00 12.9 33 Este 44 Este 0 -- -- 72
2020-03-18 04:00:00 13.6 25 Este 43 Sudeste 0 -- -- 74
2020-03-18 03:00:00 13.3 24 Este 36 Este 0 -- -- 76
2020-03-18 02:00:00 12.9 25 Este 35 Nordeste 0 -- -- 79
2020-03-18 01:00:00 12.9 20 Nordeste 32 Nordeste 0 -- -- 74
2020-03-18 00:00:00 13 20 Nordeste 30 Este 0 -- -- 72
2020-03-17 23:00:00 13.2 15 Nordeste 22 Nordeste 0 -- -- 58
2020-03-17 22:00:00 12.6 14 Nordeste 20 Este 0 -- -- 59
2020-03-17 21:00:00 13 16 Nordeste 24 Este 0 -- -- 56
2020-03-17 20:00:00 12.9 10 Nordeste 16 Nordeste 0 -- -- 52
2020-03-17 19:00:00 13.5 9 Este 31 Este 0 -- -- 51
2020-03-17 18:00:00 15.6 22 Este 31 Este 0 -- -- 50
2020-03-17 17:00:00 16.2 22 Sudeste 40 Sudeste 0 -- -- 47
2020-03-17 16:00:00 16 22 Sudeste 39 Este 0 -- -- 46
2020-03-17 15:00:00 15.4 27 Este 37 Sudeste 0 -- -- 48
2020-03-17 14:00:00 15 21 Sudeste 39 Este 0 -- -- 53
2020-03-17 13:00:00 14.1 27 Sudeste 42 Este 0 -- -- 55
2020-03-17 12:00:00 13.1 24 Sudeste 46 Sudeste 0 -- -- 56
2020-03-17 11:00:00 11.8 27 Este 43 Este 0 -- -- 58
2020-03-17 10:00:00 10.3 31 Este 49 Este 0 -- -- 61
2020-03-17 09:00:00 7.7 19 Este 27 Este 0 -- -- 75
2020-03-17 08:00:00 5.4 16 Nordeste 25 Este 0 -- -- 84
2020-03-17 07:00:00 3.9 13 Nordeste 22 Nordeste 0 -- -- 93
2020-03-17 06:00:00 4.5 15 Nordeste 29 Nordeste 0 -- -- 90
2020-03-17 05:00:00 4.3 17 Nordeste 27 Nordeste 0 -- -- 91
2020-03-17 04:00:00 4.4 19 Nordeste 28 Nordeste 0 -- -- 91
2020-03-17 03:00:00 4.7 22 Nordeste 34 Nordeste 0 -- -- 90
2020-03-17 02:00:00 5 21 Nordeste 32 Nordeste 0 -- -- 90
2020-03-17 01:00:00 4.9 15 Nordeste 25 Nordeste 0 -- -- 93
2020-03-17 00:00:00 5.2 7 Nordeste 22 Nordeste 0 -- -- 92
2020-03-16 23:00:00 5.9 15 Nordeste 27 Nordeste 0 -- -- 90
2020-03-16 22:00:00 6.3 14 Norte 35 Nordeste 0 -- -- 89
2020-03-16 21:00:00 7 19 Norte 41 Norte 0 -- -- 87
2020-03-16 20:00:00 7.2 25 Norte 42 Norte 0.6 -- -- 88
2020-03-16 19:00:00 6.9 14 Norte 28 Noroeste 1 -- -- 95
2020-03-16 18:00:00 7.2 19 Norte 40 Noroeste 0.8 -- -- 89
2020-03-16 17:00:00 8.5 24 Norte 53 Noroeste 0.2 -- -- 81
2020-03-16 16:00:00 7.7 23 Noroeste 47 Noroeste 0.2 -- -- 84
2020-03-16 15:00:00 8.1 35 Norte 55 Norte 0.2 -- -- 81
2020-03-16 14:00:00 8.9 30 Norte 50 Norte 0 -- -- 68
2020-03-16 13:00:00 9.8 27 Norte 52 Norte 0 -- -- 58
2020-03-16 12:00:00 9.3 28 Norte 53 Norte 0 -- -- 59
2020-03-16 11:00:00 8.9 31 Norte 49 Norte 0 -- -- 60
2020-03-16 10:00:00 8 24 Norte 44 Norte 0 -- -- 65
2020-03-16 09:00:00 6 23 Noroeste 41 Noroeste 0 -- -- 71
2020-03-16 08:00:00 3.3 16 Noroeste 28 Noroeste 0 -- -- 86
2020-03-16 07:00:00 2.3 12 Noroeste 17 Noroeste 0 -- -- 91
2020-03-16 06:00:00 3 14 Noroeste 24 Noroeste 0 -- -- 88
2020-03-16 05:00:00 3.3 16 Noroeste 21 Noroeste 0 -- -- 87
2020-03-16 04:00:00 3.5 14 Noroeste 23 Noroeste 0 -- -- 85
2020-03-16 03:00:00 4 14 Noroeste 23 Noroeste 0 -- -- 81
2020-03-16 02:00:00 4.2 15 Noroeste 23 Noroeste 0 -- -- 82
2020-03-16 01:00:00 5.6 12 Noroeste 31 Noroeste 0 -- -- 77
2020-03-16 00:00:00 6.5 19 Noroeste 37 Noroeste 0 -- -- 75
2020-03-15 23:00:00 7.8 17 Norte 38 Noroeste 0 -- -- 72
2020-03-15 22:00:00 9 17 Noroeste 40 Noroeste 0 -- -- 85
2020-03-15 21:00:00 10.9 21 Noroeste 41 Noroeste 0 -- -- 78
2020-03-15 20:00:00 13.1 16 Noroeste 33 Noroeste 0 -- -- 64
2020-03-15 19:00:00 15.2 20 Noroeste 36 Noroeste 0 -- -- 61
2020-03-15 18:00:00 16.6 24 Noroeste 40 Noroeste 0 -- -- 68
2020-03-15 17:00:00 18.1 26 Noroeste 47 Oeste 0 -- -- 65
2020-03-15 16:00:00 18.6 30 Noroeste 40 Noroeste 0 -- -- 66
2020-03-15 15:00:00 19.2 20 Oeste 32 Oeste 0 -- -- 62
2020-03-15 14:00:00 19.3 18 Oeste 28 Oeste 0 -- -- 63
2020-03-15 13:00:00 18.5 14 Sudoeste 23 Sudoeste 0 -- -- 72
2020-03-15 12:00:00 17.6 11 Oeste 21 Sudoeste 0 -- -- 73
2020-03-15 11:00:00 15.7 9 Oeste 22 Oeste 0 -- -- 81
2020-03-15 10:00:00 14.8 8 Sudoeste 14 Sudoeste 0 -- -- 88
2020-03-15 09:00:00 12.3 0 Calma 10 Sur 0 -- -- 97
2020-03-15 08:00:00 9.9 6 Sur 11 Sur 0 -- -- 100
2020-03-15 07:00:00 9 4 Sudeste 5 Sur 0 -- -- 100
2020-03-15 06:00:00 9.6 0 Calma 5 Oeste 0 -- -- 100
2020-03-15 05:00:00 10 0 Calma 5 Oeste 0 -- -- 100
2020-03-15 04:00:00 9.8 0 Calma 3 Este 0 -- -- 98
2020-03-15 03:00:00 10.4 3 Este 14 Sudoeste 0 -- -- 100
2020-03-15 02:00:00 11.2 0 Calma -- -- 0 -- -- 100
2020-03-15 01:00:00 11.3 0 Calma -- -- 0 -- -- 99
2020-03-15 00:00:00 10.9 0 Calma -- -- 0 -- -- 97
2020-03-14 23:00:00 12.7 0 Calma 4 Oeste 0 -- -- 93
2020-03-14 22:00:00 13.3 4 Oeste 7 Noroeste 0 -- -- 87
2020-03-14 21:00:00 14.3 0 Calma 5 Noroeste 0 -- -- 85
2020-03-14 20:00:00 16.8 4 Noroeste 8 Oeste 0 -- -- 75
2020-03-14 19:00:00 21 2 Nordeste 6 Norte 0 -- -- 58
2020-03-14 18:00:00 22.3 4 Sudoeste 10 Noroeste 0 -- -- 54
2020-03-14 17:00:00 22.3 0 Calma 10 Norte 0 -- -- 53
2020-03-14 16:00:00 21.6 5 Este 12 Norte 0 -- -- 58
2020-03-14 15:00:00 20.9 0 Calma 8 Sur 0 -- -- 61
2020-03-14 14:00:00 19.2 5 Sudoeste 10 Sur 0 -- -- 69
2020-03-14 13:00:00 17 5 Sudeste 15 Sudeste 0 -- -- 77
2020-03-14 12:00:00 14.3 10 Sudeste 19 Sudeste 0 -- -- 89
2020-03-14 11:00:00 12.8 13 Sudeste 17 Sudeste 0 -- -- 92
2020-03-14 10:00:00 12.8 8 Sudeste 12 Sudeste 0 -- -- 88
2020-03-14 09:00:00 10.4 4 Sudeste 7 Sudeste 0 -- -- 94
2020-03-14 08:00:00 7.6 3 Oeste 5 Noroeste 0 -- -- 97
2020-03-14 07:00:00 9.4 3 Sur 13 Norte 0 -- -- 91
2020-03-14 06:00:00 10.5 8 Norte 17 Norte 0 -- -- 89
2020-03-14 05:00:00 9.1 3 Oeste 10 Oeste 0 -- -- 100
2020-03-14 04:00:00 9.4 4 Noroeste 7 Oeste 0 -- -- 100
2020-03-14 03:00:00 10.3 2 Oeste 10 Norte 0 -- -- 98
2020-03-14 02:00:00 11.9 5 Norte 15 Norte 0 -- -- 98
2020-03-14 01:00:00 11.3 5 Noroeste 10 Noroeste 0 -- -- 100
2020-03-14 00:00:00 10.8 6 Oeste 9 Noroeste 0 -- -- 100
2020-03-13 23:00:00 10.8 0 Calma 4 Oeste 0 -- -- 100
2020-03-13 22:00:00 11.4 2 Oeste 4 Oeste 0 -- -- 99
2020-03-13 21:00:00 12.4 3 Noroeste 12 Noroeste 0 -- -- 95
2020-03-13 20:00:00 13.6 3 Noroeste 13 Oeste 0 -- -- 92
2020-03-13 19:00:00 15.7 10 Oeste 16 Oeste 0 -- -- 86
2020-03-13 18:00:00 17.1 12 Oeste 18 Oeste 0 -- -- 81
2020-03-13 17:00:00 18 9 Oeste 17 Oeste 0 -- -- 76
2020-03-13 16:00:00 17.2 8 Oeste 17 Oeste 0 -- -- 79
2020-03-13 15:00:00 14.4 10 Oeste 15 Oeste 0 -- -- 90
2020-03-13 14:00:00 13.1 7 Sudoeste 14 Sudoeste 0 -- -- 93
2020-03-13 13:00:00 11.7 5 Sudoeste 10 Sudoeste 0 -- -- 99
2020-03-13 12:00:00 11.9 0 Calma 8 Oeste 0 -- -- 98
2020-03-13 11:00:00 10.6 4 Noroeste 7 Oeste 0 -- -- 100
2020-03-13 10:00:00 9.7 2 Sudoeste 9 Noroeste 0 -- -- 100
2020-03-13 09:00:00 9.3 4 Noroeste 9 Oeste 0 -- -- 100
2020-03-13 08:00:00 9 4 Noroeste 9 Noroeste 0 -- -- 100
2020-03-13 07:00:00 8.6 5 Noroeste 10 Oeste 0 -- -- 100
2020-03-13 06:00:00 8.8 0 Calma 8 Sudeste 0 -- -- 100
2020-03-13 05:00:00 8.4 4 Sudeste 6 Sudeste 0 -- -- 100
2020-03-13 04:00:00 8.9 3 Sudeste 9 Sudeste 0 -- -- 100
2020-03-13 03:00:00 9.4 5 Este 9 Este 0 -- -- 98
2020-03-13 02:00:00 10.5 0 Calma 2 Sudeste 0 -- -- 100
2020-03-13 01:00:00 11.4 2 Noroeste 8 Noroeste 0 -- -- 92
2020-03-13 00:00:00 11.5 2 Noroeste 8 Noroeste 0 -- -- 94
2020-03-12 23:00:00 13.1 0 Calma 3 Noroeste 0 -- -- 88
2020-03-12 22:00:00 13.7 2 Norte 8 Oeste 0 -- -- 85
2020-03-12 21:00:00 15.5 5 Noroeste 15 Oeste 0 -- -- 76
2020-03-12 20:00:00 16.5 2 Noroeste 12 Oeste 0 -- -- 73
2020-03-12 19:00:00 18.6 8 Oeste 22 Sudoeste 0 -- -- 65
2020-03-12 18:00:00 20.5 15 Sudoeste 26 Oeste 0 -- -- 52
2020-03-12 17:00:00 22.1 17 Oeste 28 Oeste 0 -- -- 45
2020-03-12 16:00:00 23.2 16 Oeste 24 Oeste 0 -- -- 47
2020-03-12 15:00:00 23.8 10 Sudoeste 21 Sur 0 -- -- 44
2020-03-12 14:00:00 22.3 13 Sur 23 Sur 0 -- -- 51
2020-03-12 13:00:00 22.2 12 Sur 18 Sudeste 0 -- -- 55
2020-03-12 12:00:00 21.2 9 Sur 16 Sudeste 0 -- -- 58
2020-03-12 11:00:00 21.1 10 Sudeste 15 Sudeste 0 -- -- 57
2020-03-12 10:00:00 19.3 9 Sudeste 13 Sudeste 0 -- -- 60
2020-03-12 09:00:00 13.8 4 Sur 5 Sudeste 0 -- -- 84
2020-03-12 08:00:00 11 2 Sur 8 Sudeste 0 -- -- 84
2020-03-12 07:00:00 11.2 5 Sur 10 Sudeste 0 -- -- 83
2020-03-12 06:00:00 12.3 8 Sudeste 10 Sudeste 0 -- -- 79
2020-03-12 05:00:00 13.1 10 Sudeste 13 Sudeste 0 -- -- 76
2020-03-12 04:00:00 12.8 8 Sur 11 Sudeste 0 -- -- 78
2020-03-12 03:00:00 15.5 5 Sudeste 10 Sudeste 0 -- -- 69
2020-03-12 02:00:00 15.3 5 Sur 8 Sur 0 -- -- 69
2020-03-12 01:00:00 16.3 2 Sur 10 Sudeste 0 -- -- 64
2020-03-12 00:00:00 15.7 4 Sudeste 7 Sudeste 0 -- -- 69
2020-03-11 23:00:00 15.3 4 Sudeste 6 Sur 0 -- -- 77
2020-03-11 22:00:00 15.8 0 Calma 4 Sur 0 -- -- 77
2020-03-11 21:00:00 17.2 0 Calma 6 Nordeste 0 -- -- 74
2020-03-11 20:00:00 19.8 0 Calma 14 Nordeste 0 -- -- 63
2020-03-11 19:00:00 21.4 10 Nordeste 13 Nordeste 0 -- -- 61
2020-03-11 18:00:00 22.9 9 Nordeste 15 Nordeste 0 -- -- 58
2020-03-11 17:00:00 24.5 10 Nordeste 16 Norte 0 -- -- 48
2020-03-11 16:00:00 24.9 7 Sudeste 14 Este 0 -- -- 42
2020-03-11 15:00:00 24.8 9 Sudeste 13 Este 0 -- -- 47
2020-03-11 14:00:00 25.1 7 Este 16 Sudeste 0 -- -- 43
2020-03-11 13:00:00 23.3 9 Sudeste 13 Sudeste 0 -- -- 49
2020-03-11 12:00:00 22.4 8 Sur 14 Sudeste 0 -- -- 51
2020-03-11 11:00:00 20.2 10 Sudeste 17 Sudeste 0 -- -- 57
2020-03-11 10:00:00 18.4 10 Sur 14 Sur 0 -- -- 62
2020-03-11 09:00:00 13.7 4 Sudeste 6 Sur 0 -- -- 86
2020-03-11 08:00:00 9.1 2 Sudeste 4 Sudeste 0 -- -- 90
2020-03-11 07:00:00 10.1 0 Calma -- -- 0 -- -- 87
2020-03-11 06:00:00 10 0 Calma 2 Norte 0 -- -- 85
2020-03-11 05:00:00 10.4 0 Calma 2 Sur 0 -- -- 86
2020-03-11 04:00:00 11.2 2 Sudeste 5 Este 0 -- -- 80
2020-03-11 03:00:00 12.8 2 Oeste 4 Oeste 0 -- -- 75
2020-03-11 02:00:00 15.3 0 Calma 5 Norte 0 -- -- 64
2020-03-11 01:00:00 14.4 2 Nordeste 5 Nordeste 0 -- -- 66
2020-03-11 00:00:00 12.3 0 Calma -- -- 0 -- -- 75